Time,TemperatureF,DewpointF,PressureIn,WindDirection,WindDirectionDegrees,WindSpeedMPH,WindSpeedGustMPH,Humidity,HourlyPrecipIn,Conditions,Clouds,dailyrainin,SoftwareType,DateUTC
2013-03-21 00:04:00,37.0,24.0,29.12,SSW,202,0.0,2.2,59,0.00,CLR,,0.00,WeatherDisplay:10.37,2013-03-21 06:04:00,
2013-03-21 00:09:00,37.0,24.0,29.11,SSW,202,0.0,2.2,59,0.00,CLR,,0.00,WeatherDisplay:10.37,2013-03-21 06:09:00,
2013-03-21 00:14:00,37.0,23.6,29.11,North,0,0.0,0.0,58,0.00,CLR,,0.00,WeatherDisplay:10.37,2013-03-21 06:14:00,
2013-03-21 00:19:00,37.0,23.6,29.11,North,0,0.0,0.0,58,0.00,CLR,,0.00,WeatherDisplay:10.37,2013-03-21 06:19:00,
2013-03-21 00:24:00,37.0,23.6,29.11,NNW,338,0.0,0.0,58,0.00,CLR,,0.00,WeatherDisplay:10.37,2013-03-21 06:24:00,
2013-03-21 00:29:00,36.9,23.4,29.10,ENE,68,0.0,0.0,58,0.00,CLR,,0.00,WeatherDisplay:10.37,2013-03-21 06:29:00,
2013-03-21 00:34:00,36.9,23.4,29.10,North,0,0.0,0.0,58,0.00,CLR,,0.00,WeatherDisplay:10.37,2013-03-21 06:34:00,
2013-03-21 00:39:00,36.5,23.1,29.10,SW,225,0.0,0.0,58,0.00,CLR,,0.00,WeatherDisplay:10.37,2013-03-21 06:39:00,
2013-03-21 00:44:00,36.3,22.9,29.10,NNW,338,0.0,0.0,58,0.00,CLR,,0.00,WeatherDisplay:10.37,2013-03-21 06:44:00,
2013-03-21 00:49:00,36.1,23.2,29.11,NE,45,0.0,0.0,59,0.00,CLR,,0.00,WeatherDisplay:10.37,2013-03-21 06:49:00,
2013-03-21 00:54:00,36.0,23.0,29.11,ENE,68,0.0,0.0,59,0.00,CLR,,0.00,WeatherDisplay:10.37,2013-03-21 06:54:00,
2013-03-21 00:59:00,35.6,22.7,29.11,NE,45,0.0,0.0,59,0.00,CLR,,0.00,WeatherDisplay:10.37,2013-03-21 06:59:00,
2013-03-21 01:04:00,35.6,22.7,29.11,West,270,0.0,0.0,59,0.00,CLR,,0.00,WeatherDisplay:10.37,2013-03-21 07:04:00,
2013-03-21 01:09:00,35.4,22.5,29.11,NE,45,0.0,0.0,59,0.00,CLR,,0.00,WeatherDisplay:10.37,2013-03-21 07:09:00,
2013-03-21 01:14:00,35.2,22.3,29.11,NNE,22,0.0,0.0,59,0.00,CLR,,0.00,WeatherDisplay:10.37,2013-03-21 07:14:00,
2013-03-21 01:19:00,35.4,22.9,29.11,NNW,338,0.0,0.0,60,0.00,CLR,,0.00,WeatherDisplay:10.37,2013-03-21 07:19:00,
2013-03-21 01:24:00,35.1,22.6,29.11,NNE,22,0.0,0.3,60,0.00,CLR,,0.00,WeatherDisplay:10.37,2013-03-21 07:24:00,
2013-03-21 01:29:00,35.1,22.2,29.10,North,0,0.0,0.3,59,0.00,CLR,,0.00,WeatherDisplay:10.37,2013-03-21 07:29:00,
2013-03-21 01:34:00,35.1,22.2,29.10,SSE,158,3.5,3.5,59,0.00,CLR,,0.00,WeatherDisplay:10.37,2013-03-21 07:34:00,
2013-03-21 01:39:00,35.1,21.8,29.10,SW,225,0.0,1.1,58,0.00,CLR,,0.00,WeatherDisplay:10.37,2013-03-21 07:39:00,
2013-03-21 01:44:00,34.9,21.6,29.10,SE,135,0.0,0.3,58,0.00,CLR,,0.00,WeatherDisplay:10.37,2013-03-21 07:44:00,
2013-03-21 01:49:00,34.9,21.6,29.11,WSW,248,0.0,0.0,58,0.00,CLR,,0.00,WeatherDisplay:10.37,2013-03-21 07:49:00,
2013-03-21 01:54:00,34.7,21.4,29.11,East,90,0.0,0.1,58,0.00,CLR,,0.00,WeatherDisplay:10.37,2013-03-21 07:54:00,
2013-03-21 01:59:00,34.5,21.2,29.11,SSE,158,1.3,1.3,58,0.00,CLR,,0.00,WeatherDisplay:10.37,2013-03-21 07:59:00,
2013-03-21 02:04:00,34.7,21.0,29.11,WSW,248,0.0,0.5,57,0.00,CLR,,0.00,WeatherDisplay:10.37,2013-03-21 08:04:00,
2013-03-21 02:09:00,34.7,21.0,29.12,South,180,3.5,3.5,57,0.00,CLR,,0.00,WeatherDisplay:10.37,2013-03-21 08:09:00,
2013-03-21 02:14:00,34.7,21.0,29.12,SE,135,0.0,0.7,57,0.00,CLR,,0.00,WeatherDisplay:10.37,2013-03-21 08:14:00,
2013-03-21 02:19:00,34.7,20.6,29.12,NE,45,4.6,4.6,56,0.00,CLR,,0.00,WeatherDisplay:10.37,2013-03-21 08:19:00,
2013-03-21 02:24:00,34.9,20.8,29.12,WSW,248,1.4,1.4,56,0.00,CLR,,0.00,WeatherDisplay:10.37,2013-03-21 08:24:00,
2013-03-21 02:29:00,34.9,20.8,29.12,NE,45,0.0,0.5,56,0.00,CLR,,0.00,WeatherDisplay:10.37,2013-03-21 08:29:00,
2013-03-21 02:34:00,34.9,20.8,29.12,ENE,68,0.0,0.1,56,0.00,CLR,,0.00,WeatherDisplay:10.37,2013-03-21 08:34:00,
2013-03-21 02:39:00,34.9,20.8,29.12,North,0,0.0,0.0,56,0.00,CLR,,0.00,WeatherDisplay:10.37,2013-03-21 08:39:00,
2013-03-21 02:44:00,34.7,20.6,29.12,North,0,0.0,0.0,56,0.00,CLR,,0.00,WeatherDisplay:10.37,2013-03-21 08:44:00,
2013-03-21 02:49:00,34.5,20.4,29.14,NE,45,0.0,0.0,56,0.00,CLR,,0.00,WeatherDisplay:10.37,2013-03-21 08:49:00,
2013-03-21 02:54:00,34.3,20.3,29.14,WNW,292,0.0,0.0,56,0.00,CLR,,0.00,WeatherDisplay:10.37,2013-03-21 08:54:00,
2013-03-21 02:59:00,34.2,20.1,29.14,NNE,22,0.0,0.0,56,0.00,CLR,,0.00,WeatherDisplay:10.37,2013-03-21 08:59:00,
2013-03-21 03:04:00,34.2,20.1,29.14,WSW,248,0.0,0.0,56,0.00,CLR,,0.00,WeatherDisplay:10.37,2013-03-21 09:04:00,
2013-03-21 03:09:00,34.0,19.9,29.14,NE,45,0.0,0.0,56,0.00,CLR,,0.00,WeatherDisplay:10.37,2013-03-21 09:09:00,
2013-03-21 03:14:00,34.0,19.9,29.14,North,0,0.0,0.0,56,0.00,CLR,,0.00,WeatherDisplay:10.37,2013-03-21 09:14:00,
2013-03-21 03:19:00,33.6,20.0,29.14,East,90,0.0,0.0,57,0.00,CLR,,0.00,WeatherDisplay:10.37,2013-03-21 09:19:00,
2013-03-21 03:24:00,33.6,20.0,29.14,SE,135,0.0,0.0,57,0.00,CLR,,0.00,WeatherDisplay:10.37,2013-03-21 09:24:00,
2013-03-21 03:29:00,33.4,19.8,29.14,SSW,202,0.0,0.0,57,0.00,CLR,,0.00,WeatherDisplay:10.37,2013-03-21 09:29:00,
2013-03-21 03:34:00,33.4,19.8,29.14,NE,45,0.0,0.0,57,0.00,CLR,,0.00,WeatherDisplay:10.37,2013-03-21 09:34:00,
2013-03-21 03:39:00,33.6,20.0,29.14,ENE,68,0.0,0.0,57,0.00,CLR,,0.00,WeatherDisplay:10.37,2013-03-21 09:39:00,
2013-03-21 03:44:00,33.4,19.8,29.14,NNW,338,0.0,0.0,57,0.00,CLR,,0.00,WeatherDisplay:10.37,2013-03-21 09:44:00,
2013-03-21 03:49:00,33.4,20.2,29.14,North,0,0.0,0.0,58,0.00,CLR,,0.00,WeatherDisplay:10.37,2013-03-21 09:49:00,
2013-03-21 03:54:00,33.4,20.2,29.14,East,90,0.0,0.0,58,0.00,CLR,,0.00,WeatherDisplay:10.37,2013-03-21 09:54:00,
2013-03-21 03:59:00,33.4,20.2,29.14,North,0,0.0,0.0,58,0.00,CLR,,0.00,WeatherDisplay:10.37,2013-03-21 09:59:00,
2013-03-21 04:04:00,33.3,20.1,29.14,North,0,0.0,0.0,58,0.00,CLR,,0.00,WeatherDisplay:10.37,2013-03-21 10:04:00,
2013-03-21 04:09:00,33.3,20.1,29.15,ENE,68,0.0,0.0,58,0.00,CLR,,0.00,WeatherDisplay:10.37,2013-03-21 10:09:00,
2013-03-21 04:14:00,33.1,19.9,29.15,NNW,338,0.0,0.0,58,0.00,CLR,,0.00,WeatherDisplay:10.37,2013-03-21 10:14:00,
2013-03-21 04:19:00,33.1,19.9,29.15,SE,135,0.0,0.0,58,0.00,CLR,,0.00,WeatherDisplay:10.37,2013-03-21 10:19:00,
2013-03-21 04:24:00,33.3,20.5,29.15,East,90,0.0,0.0,59,0.00,CLR,,0.00,WeatherDisplay:10.37,2013-03-21 10:24:00,
2013-03-21 04:29:00,32.9,20.1,29.14,North,0,0.0,0.0,59,0.00,CLR,,0.00,WeatherDisplay:10.37,2013-03-21 10:29:00,
2013-03-21 04:34:00,32.9,20.1,29.14,NNW,338,0.0,0.0,59,0.00,CLR,,0.00,WeatherDisplay:10.37,2013-03-21 10:34:00,
2013-03-21 04:40:00,32.7,20.0,29.14,North,0,0.0,0.0,59,0.00,CLR,,0.00,WeatherDisplay:10.37,2013-03-21 10:40:00,
2013-03-21 04:45:00,32.7,20.0,29.14,NNW,338,0.0,0.0,59,0.00,CLR,,0.00,WeatherDisplay:10.37,2013-03-21 10:45:00,
2013-03-21 04:50:00,32.5,19.8,29.14,NE,45,0.0,0.0,59,0.00,CLR,,0.00,WeatherDisplay:10.37,2013-03-21 10:50:00,
2013-03-21 04:55:00,32.5,19.8,29.14,NNW,338,0.0,0.0,59,0.00,CLR,,0.00,WeatherDisplay:10.37,2013-03-21 10:55:00,
2013-03-21 05:00:00,32.0,18.9,29.14,ESE,112,0.0,0.0,58,0.00,CLR,,0.00,WeatherDisplay:10.37,2013-03-21 11:00:00,
2013-03-21 05:05:00,32.2,19.0,29.14,North,0,0.0,0.0,58,0.00,CLR,,0.00,WeatherDisplay:10.37,2013-03-21 11:05:00,
2013-03-21 05:10:00,31.8,18.7,29.15,North,0,0.0,0.0,58,0.00,CLR,,0.00,WeatherDisplay:10.37,2013-03-21 11:10:00,
2013-03-21 05:15:00,31.8,18.7,29.15,NW,315,0.0,0.0,58,0.00,CLR,,0.00,WeatherDisplay:10.37,2013-03-21 11:15:00,
2013-03-21 05:20:00,31.8,19.1,29.15,North,0,0.0,0.0,59,0.00,CLR,,0.00,WeatherDisplay:10.37,2013-03-21 11:20:00,
2013-03-21 05:25:00,31.5,18.4,29.15,WSW,248,0.0,0.0,58,0.00,CLR,,0.00,WeatherDisplay:10.37,2013-03-21 11:25:00,
2013-03-21 05:31:00,31.5,18.4,29.16,ENE,68,0.0,0.0,58,0.00,CLR,,0.00,WeatherDisplay:10.37,2013-03-21 11:31:00,
2013-03-21 05:36:00,31.1,18.0,29.16,WNW,292,0.0,0.0,58,0.00,CLR,,0.00,WeatherDisplay:10.37,2013-03-21 11:36:00,
2013-03-21 05:41:00,31.1,18.0,29.16,NNE,22,0.0,0.0,58,0.00,CLR,,0.00,WeatherDisplay:10.37,2013-03-21 11:41:00,
2013-03-21 05:47:00,30.7,18.1,29.16,NW,315,0.0,0.0,59,0.00,CLR,,0.00,WeatherDisplay:10.37,2013-03-21 11:47:00,
2013-03-21 05:52:00,30.7,18.1,29.16,NNE,22,0.0,0.1,59,0.00,CLR,,0.00,WeatherDisplay:10.37,2013-03-21 11:52:00,
2013-03-21 05:57:00,30.7,17.7,29.16,North,0,0.0,0.1,58,0.00,CLR,,0.00,WeatherDisplay:10.37,2013-03-21 11:57:00,
2013-03-21 06:02:00,31.1,18.0,29.16,NNE,22,5.8,5.8,58,0.00,CLR,,0.00,WeatherDisplay:10.37,2013-03-21 12:02:00,
2013-03-21 06:08:00,31.5,18.4,29.16,East,90,2.3,2.3,58,0.00,CLR,,0.00,WeatherDisplay:10.37,2013-03-21 12:08:00,
2013-03-21 06:13:00,31.5,18.0,29.16,North,0,0.0,0.3,57,0.00,CLR,,0.00,WeatherDisplay:10.37,2013-03-21 12:13:00,
2013-03-21 06:18:00,31.8,18.3,29.16,NE,45,0.0,0.2,57,0.00,CLR,,0.00,WeatherDisplay:10.37,2013-03-21 12:18:00,
2013-03-21 06:23:00,31.8,17.9,29.16,NNW,338,0.0,0.5,56,0.00,CLR,,0.00,WeatherDisplay:10.37,2013-03-21 12:23:00,
2013-03-21 06:28:00,31.8,17.9,29.18,North,0,0.0,0.7,56,0.00,CLR,,0.00,WeatherDisplay:10.37,2013-03-21 12:28:00,
2013-03-21 06:33:00,32.2,17.8,29.18,NNW,338,2.3,2.3,55,0.00,CLR,,0.00,WeatherDisplay:10.37,2013-03-21 12:33:00,
2013-03-21 06:38:00,31.8,17.5,29.18,SW,225,2.3,2.3,55,0.00,CLR,,0.00,WeatherDisplay:10.37,2013-03-21 12:38:00,
2013-03-21 06:43:00,32.0,16.8,29.18,SSW,202,2.3,2.3,53,0.00,CLR,,0.00,WeatherDisplay:10.37,2013-03-21 12:43:00,
2013-03-21 06:48:00,32.2,16.9,29.18,East,90,2.3,2.3,53,0.00,CLR,,0.00,WeatherDisplay:10.37,2013-03-21 12:48:00,
2013-03-21 06:53:00,32.0,16.8,29.18,East,90,0.0,0.8,53,0.00,CLR,,0.00,WeatherDisplay:10.37,2013-03-21 12:53:00,
2013-03-21 06:59:00,32.2,16.9,29.18,East,90,0.0,0.3,53,0.00,CLR,,0.00,WeatherDisplay:10.37,2013-03-21 12:59:00,
2013-03-21 07:04:00,31.8,16.6,29.18,ENE,68,0.0,0.2,53,0.00,CLR,,0.00,WeatherDisplay:10.37,2013-03-21 13:04:00,
2013-03-21 07:09:00,31.5,16.3,29.17,NW,315,0.0,0.2,53,0.00,CLR,,0.00,WeatherDisplay:10.37,2013-03-21 13:09:00,
2013-03-21 07:14:00,31.1,16.4,29.17,North,0,0.0,0.0,54,0.00,CLR,,0.00,WeatherDisplay:10.37,2013-03-21 13:14:00,
2013-03-21 07:19:00,31.1,16.4,29.17,North,0,0.0,0.0,54,0.00,CLR,,0.00,WeatherDisplay:10.37,2013-03-21 13:19:00,
2013-03-21 07:24:00,30.6,15.9,29.17,ENE,68,0.0,0.0,54,0.00,CLR,,0.00,WeatherDisplay:10.37,2013-03-21 13:24:00,
2013-03-21 07:29:00,30.4,15.7,29.18,North,0,0.0,0.0,54,0.00,CLR,,0.00,WeatherDisplay:10.37,2013-03-21 13:29:00,
2013-03-21 07:34:00,30.4,16.1,29.18,East,90,0.0,0.0,55,0.00,CLR,,0.00,WeatherDisplay:10.37,2013-03-21 13:34:00,
2013-03-21 07:39:00,29.8,15.6,29.18,North,0,0.0,0.1,55,0.00,CLR,,0.00,WeatherDisplay:10.37,2013-03-21 13:39:00,
2013-03-21 07:44:00,29.7,15.5,29.18,ENE,68,0.0,0.3,55,0.00,CLR,,0.00,WeatherDisplay:10.37,2013-03-21 13:44:00,
2013-03-21 07:49:00,29.7,15.5,29.20,NW,315,0.0,0.1,55,0.00,CLR,,0.00,WeatherDisplay:10.37,2013-03-21 13:49:00,
2013-03-21 07:54:00,29.7,15.5,29.20,ENE,68,4.6,4.6,55,0.00,CLR,,0.00,WeatherDisplay:10.37,2013-03-21 13:54:00,
2013-03-21 07:59:00,29.7,15.0,29.20,NW,315,0.0,0.7,54,0.00,CLR,,0.00,WeatherDisplay:10.37,2013-03-21 13:59:00,
2013-03-21 08:04:00,29.7,15.0,29.20,WNW,292,0.0,0.5,54,0.00,CLR,,0.00,WeatherDisplay:10.37,2013-03-21 14:04:00,
2013-03-21 08:09:00,29.7,15.0,29.20,NE,45,0.0,0.0,54,0.00,CLR,,0.00,WeatherDisplay:10.37,2013-03-21 14:09:00,
2013-03-21 08:14:00,29.7,15.0,29.20,West,270,0.0,0.0,54,0.00,CLR,,0.00,WeatherDisplay:10.37,2013-03-21 14:14:00,
2013-03-21 08:19:00,29.1,14.5,29.20,ENE,68,0.0,0.0,54,0.00,CLR,,0.00,WeatherDisplay:10.37,2013-03-21 14:19:00,
2013-03-21 08:24:00,29.1,14.5,29.20,NW,315,0.0,0.0,54,0.00,CLR,,0.00,WeatherDisplay:10.37,2013-03-21 14:24:00,
2013-03-21 08:29:00,28.9,14.4,29.20,ESE,112,0.0,0.0,54,0.00,CLR,,0.00,WeatherDisplay:10.37,2013-03-21 14:29:00,
2013-03-21 08:34:00,28.9,14.4,29.20,NNW,338,0.0,0.0,54,0.00,CLR,,0.00,WeatherDisplay:10.37,2013-03-21 14:34:00,
2013-03-21 08:39:00,28.9,14.8,29.20,WNW,292,0.0,0.0,55,0.00,CLR,,0.00,WeatherDisplay:10.37,2013-03-21 14:39:00,
2013-03-21 08:44:00,29.3,15.1,29.20,South,180,9.2,9.2,55,0.00,CLR,,0.00,WeatherDisplay:10.37,2013-03-21 14:44:00,
2013-03-21 08:49:00,29.7,15.0,29.21,NE,45,0.0,0.8,54,0.00,CLR,,0.00,WeatherDisplay:10.37,2013-03-21 14:49:00,
2013-03-21 08:54:00,29.8,14.8,29.21,South,180,4.6,4.6,53,0.00,CLR,,0.00,WeatherDisplay:10.37,2013-03-21 14:54:00,
2013-03-21 08:59:00,30.4,15.3,29.21,ENE,68,6.9,6.9,53,0.00,CLR,,0.00,WeatherDisplay:10.37,2013-03-21 14:59:00,
2013-03-21 09:04:00,30.4,14.8,29.21,NNW,338,3.5,3.5,52,0.00,CLR,,0.00,WeatherDisplay:10.37,2013-03-21 15:04:00,
2013-03-21 09:09:00,30.7,15.2,29.22,SSW,202,3.5,3.5,52,0.00,CLR,,0.00,WeatherDisplay:10.37,2013-03-21 15:09:00,
2013-03-21 09:14:00,30.9,15.3,29.22,WSW,248,4.6,4.6,52,0.00,CLR,,0.00,WeatherDisplay:10.37,2013-03-21 15:14:00,
2013-03-21 09:19:00,31.1,15.1,29.22,NE,45,6.8,6.8,51,0.00,CLR,,0.00,WeatherDisplay:10.37,2013-03-21 15:19:00,
2013-03-21 09:24:00,31.3,14.3,29.22,SSE,158,5.2,5.2,49,0.00,CLR,,0.00,WeatherDisplay:10.37,2013-03-21 15:24:00,
2013-03-21 09:29:00,31.8,14.8,29.23,SE,135,3.5,3.5,49,0.00,CLR,,0.00,WeatherDisplay:10.37,2013-03-21 15:29:00,
2013-03-21 09:34:00,31.8,14.8,29.23,ESE,112,1.3,1.5,49,0.00,CLR,,0.00,WeatherDisplay:10.37,2013-03-21 15:34:00,
2013-03-21 09:39:00,32.0,14.5,29.23,WSW,248,0.0,0.5,48,0.00,CLR,,0.00,WeatherDisplay:10.37,2013-03-21 15:39:00,
2013-03-21 09:44:00,32.2,14.7,29.23,East,90,7.2,7.2,48,0.00,CLR,,0.00,WeatherDisplay:10.37,2013-03-21 15:44:00,
2013-03-21 09:49:00,32.5,15.0,29.22,East,90,9.2,9.2,48,0.00,CLR,,0.00,WeatherDisplay:10.37,2013-03-21 15:49:00,
2013-03-21 09:54:00,32.9,14.8,29.22,SW,225,1.1,3.2,47,0.00,CLR,,0.00,WeatherDisplay:10.37,2013-03-21 15:54:00,
2013-03-21 10:00:00,33.3,15.2,29.22,NNW,338,2.3,2.3,47,0.00,CLR,,0.00,WeatherDisplay:10.37,2013-03-21 16:00:00,
2013-03-21 10:05:00,33.6,15.5,29.22,SSW,202,0.0,0.7,47,0.00,CLR,,0.00,WeatherDisplay:10.37,2013-03-21 16:05:00,
2013-03-21 10:10:00,33.4,14.8,29.24,SSE,158,2.3,2.3,46,0.00,CLR,,0.00,WeatherDisplay:10.37,2013-03-21 16:10:00,
2013-03-21 10:15:00,34.2,16.0,29.24,ENE,68,3.5,3.5,47,0.00,CLR,,0.00,WeatherDisplay:10.37,2013-03-21 16:15:00,
2013-03-21 10:20:00,34.5,16.3,29.24,SSE,158,1.1,1.1,47,0.00,CLR,,0.00,WeatherDisplay:10.37,2013-03-21 16:20:00,
2013-03-21 10:25:00,34.9,16.7,29.24,South,180,0.0,1.6,47,0.00,CLR,,0.00,WeatherDisplay:10.37,2013-03-21 16:25:00,
2013-03-21 10:30:00,35.1,16.8,29.24,NE,45,10.4,10.4,47,0.00,CLR,,0.00,WeatherDisplay:10.37,2013-03-21 16:30:00,
2013-03-21 10:35:00,34.7,16.5,29.24,NE,45,0.0,2.2,47,0.00,CLR,,0.00,WeatherDisplay:10.37,2013-03-21 16:35:00,
2013-03-21 10:40:00,34.5,16.3,29.24,SE,135,3.5,3.5,47,0.00,CLR,,0.00,WeatherDisplay:10.37,2013-03-21 16:40:00,
2013-03-21 10:45:00,34.2,15.5,29.24,East,90,3.5,3.5,46,0.00,CLR,,0.00,WeatherDisplay:10.37,2013-03-21 16:45:00,
2013-03-21 10:50:00,33.8,14.7,29.24,SSE,158,6.9,6.9,45,0.00,CLR,,0.00,WeatherDisplay:10.37,2013-03-21 16:50:00,
2013-03-21 10:55:00,33.6,15.0,29.24,NE,45,0.0,1.5,46,0.00,CLR,,0.00,WeatherDisplay:10.37,2013-03-21 16:55:00,
2013-03-21 11:00:00,34.2,16.0,29.24,North,0,0.0,0.3,47,0.00,CLR,,0.00,WeatherDisplay:10.37,2013-03-21 17:00:00,
2013-03-21 11:05:00,35.1,16.3,29.24,SSW,202,4.6,4.6,46,0.00,CLR,,0.00,WeatherDisplay:10.37,2013-03-21 17:05:00,
2013-03-21 11:10:00,35.1,15.8,29.24,WSW,248,2.3,2.3,45,0.00,CLR,,0.00,WeatherDisplay:10.37,2013-03-21 17:10:00,
2013-03-21 11:15:00,35.2,16.0,29.24,WSW,248,4.6,4.6,45,0.00,CLR,,0.00,WeatherDisplay:10.37,2013-03-21 17:15:00,
2013-03-21 11:20:00,34.9,14.6,29.24,SSW,202,13.1,13.1,43,0.00,CLR,,0.00,WeatherDisplay:10.37,2013-03-21 17:20:00,
2013-03-21 11:25:00,34.9,14.1,29.24,ENE,68,3.5,3.5,42,0.00,CLR,,0.00,WeatherDisplay:10.37,2013-03-21 17:25:00,
2013-03-21 11:30:00,35.4,15.6,29.25,SE,135,6.9,6.9,44,0.00,CLR,,0.00,WeatherDisplay:10.37,2013-03-21 17:30:00,
2013-03-21 11:35:00,35.8,16.0,29.25,SSE,158,2.3,2.3,44,0.00,CLR,,0.00,WeatherDisplay:10.37,2013-03-21 17:35:00,
2013-03-21 11:40:00,36.3,15.9,29.25,NNW,338,2.3,2.3,43,0.00,CLR,,0.00,WeatherDisplay:10.37,2013-03-21 17:40:00,
2013-03-21 11:45:00,36.3,15.4,29.25,SSE,158,5.8,5.8,42,0.00,CLR,,0.00,WeatherDisplay:10.37,2013-03-21 17:45:00,
2013-03-21 11:50:00,36.3,14.8,29.29,SE,135,10.4,10.4,41,0.00,CLR,,0.00,WeatherDisplay:10.37,2013-03-21 17:50:00,
2013-03-21 11:55:00,36.1,14.7,29.29,WSW,248,0.0,3.8,41,0.00,CLR,,0.00,WeatherDisplay:10.37,2013-03-21 17:55:00,
2013-03-21 12:00:00,36.3,14.8,29.29,NW,315,2.3,3.2,41,0.00,CLR,,0.00,WeatherDisplay:10.37,2013-03-21 18:00:00,
2013-03-21 12:05:00,36.1,15.2,29.29,SSW,202,2.3,2.3,42,0.00,CLR,,0.00,WeatherDisplay:10.37,2013-03-21 18:05:00,
2013-03-21 12:10:00,36.1,15.2,29.31,SSW,202,2.3,2.3,42,0.00,CLR,,0.00,WeatherDisplay:10.37,2013-03-21 18:10:00,
2013-03-21 12:15:00,36.9,14.8,29.31,SW,225,6.9,6.9,40,0.00,CLR,,0.00,WeatherDisplay:10.37,2013-03-21 18:15:00,
2013-03-21 12:20:00,36.9,14.8,29.31,SW,225,4.6,4.6,40,0.00,CLR,,0.00,WeatherDisplay:10.37,2013-03-21 18:20:00,
2013-03-21 12:25:00,36.9,14.8,29.31,ENE,68,6.9,6.9,40,0.00,CLR,,0.00,WeatherDisplay:10.37,2013-03-21 18:25:00,
2013-03-21 12:30:00,37.0,14.9,29.31,East,90,5.8,5.8,40,0.00,CLR,,0.00,WeatherDisplay:10.37,2013-03-21 18:30:00,
2013-03-21 12:35:00,37.6,15.4,29.31,WSW,248,2.3,2.9,40,0.00,CLR,,0.00,WeatherDisplay:10.37,2013-03-21 18:35:00,
2013-03-21 12:40:00,37.8,15.0,29.31,South,180,5.8,5.8,39,0.00,CLR,,0.00,WeatherDisplay:10.37,2013-03-21 18:40:00,
2013-03-21 12:45:00,39.0,16.7,29.31,SSW,202,3.5,3.5,40,0.00,CLR,,0.00,WeatherDisplay:10.37,2013-03-21 18:45:00,
2013-03-21 12:50:00,39.0,15.5,29.31,SSE,158,4.6,4.6,38,0.00,CLR,,0.00,WeatherDisplay:10.37,2013-03-21 18:50:00,
2013-03-21 12:55:00,38.7,15.2,29.31,SSW,202,5.8,5.8,38,0.00,CLR,,0.00,WeatherDisplay:10.37,2013-03-21 18:55:00,
2013-03-21 13:00:00,39.0,14.9,29.31,SE,135,6.9,6.9,37,0.00,CLR,,0.00,WeatherDisplay:10.37,2013-03-21 19:00:00,
2013-03-21 13:05:00,39.0,14.9,29.31,East,90,4.6,4.6,37,0.00,CLR,,0.00,WeatherDisplay:10.37,2013-03-21 19:05:00,
2013-03-21 13:10:00,38.8,14.7,29.32,WSW,248,4.6,4.6,37,0.00,CLR,,0.00,WeatherDisplay:10.37,2013-03-21 19:10:00,
2013-03-21 13:15:00,38.3,14.3,29.32,SW,225,2.3,2.6,37,0.00,CLR,,0.00,WeatherDisplay:10.37,2013-03-21 19:15:00,
2013-03-21 13:20:00,37.9,13.3,29.32,ENE,68,8.1,8.1,36,0.00,CLR,,0.00,WeatherDisplay:10.37,2013-03-21 19:20:00,
2013-03-21 13:25:00,37.9,13.9,29.32,South,180,0.0,2.2,37,0.00,CLR,,0.00,WeatherDisplay:10.37,2013-03-21 19:25:00,
2013-03-21 13:30:00,38.1,14.1,29.29,South,180,11.5,11.5,37,0.00,CLR,,0.00,WeatherDisplay:10.37,2013-03-21 19:30:00,
2013-03-21 13:35:00,38.3,14.3,29.29,ENE,68,5.8,5.8,37,0.00,CLR,,0.00,WeatherDisplay:10.37,2013-03-21 19:35:00,
2013-03-21 13:40:00,38.5,13.8,29.29,WSW,248,2.3,3.1,36,0.00,CLR,,0.00,WeatherDisplay:10.37,2013-03-21 19:40:00,
2013-03-21 13:45:00,38.5,13.2,29.29,South,180,8.1,8.1,35,0.00,CLR,,0.00,WeatherDisplay:10.37,2013-03-21 19:45:00,
2013-03-21 13:50:00,38.1,12.8,29.31,SW,225,3.5,3.8,35,0.00,CLR,,0.00,WeatherDisplay:10.37,2013-03-21 19:50:00,
2013-03-21 13:55:00,37.9,13.9,29.31,NNW,338,4.6,4.6,37,0.00,CLR,,0.00,WeatherDisplay:10.37,2013-03-21 19:55:00,
2013-03-21 14:00:00,38.5,15.0,29.31,SE,135,0.0,1.4,38,0.00,CLR,,0.00,WeatherDisplay:10.37,2013-03-21 20:00:00,
2013-03-21 14:05:00,39.0,15.5,29.31,ENE,68,5.8,5.8,38,0.00,CLR,,0.00,WeatherDisplay:10.37,2013-03-21 20:05:00,
2013-03-21 14:10:00,39.0,15.5,29.27,SE,135,5.8,5.8,38,0.00,CLR,,0.00,WeatherDisplay:10.37,2013-03-21 20:10:00,
2013-03-21 14:15:00,39.2,15.7,29.27,SSW,202,8.1,8.1,38,0.00,CLR,,0.00,WeatherDisplay:10.37,2013-03-21 20:15:00,
2013-03-21 14:21:00,39.2,15.1,29.27,ENE,68,5.8,5.8,37,0.00,CLR,,0.00,WeatherDisplay:10.37,2013-03-21 20:21:00,
2013-03-21 14:26:00,39.0,14.3,29.27,WSW,248,8.1,8.1,36,0.00,CLR,,0.00,WeatherDisplay:10.37,2013-03-21 20:26:00,
2013-03-21 14:31:00,38.5,13.8,29.26,SW,225,0.0,3.5,36,0.00,CLR,,0.00,WeatherDisplay:10.37,2013-03-21 20:31:00,
2013-03-21 14:36:00,37.9,13.3,29.26,WSW,248,4.6,4.6,36,0.00,CLR,,0.00,WeatherDisplay:10.37,2013-03-21 20:36:00,
2013-03-21 14:41:00,37.8,13.2,29.26,SW,225,4.6,4.6,36,0.00,CLR,,0.00,WeatherDisplay:10.37,2013-03-21 20:41:00,
2013-03-21 14:46:00,37.6,13.0,29.26,ENE,68,5.8,5.8,36,0.00,CLR,,0.00,WeatherDisplay:10.37,2013-03-21 20:46:00,
2013-03-21 14:51:00,37.8,13.8,29.28,SW,225,2.3,3.5,37,0.00,CLR,,0.00,WeatherDisplay:10.37,2013-03-21 20:51:00,
2013-03-21 14:56:00,37.9,13.9,29.28,WSW,248,10.4,10.4,37,0.00,CLR,,0.00,WeatherDisplay:10.37,2013-03-21 20:56:00,
2013-03-21 15:01:00,37.9,13.9,29.28,SSE,158,2.3,3.5,37,0.00,CLR,,0.00,WeatherDisplay:10.37,2013-03-21 21:01:00,
2013-03-21 15:06:00,38.1,14.1,29.28,SSW,202,8.1,8.1,37,0.00,CLR,,0.00,WeatherDisplay:10.37,2013-03-21 21:06:00,
2013-03-21 15:11:00,38.1,13.5,29.31,North,0,3.5,3.5,36,0.00,CLR,,0.00,WeatherDisplay:10.37,2013-03-21 21:11:00,
2013-03-21 15:16:00,38.3,13.6,29.31,East,90,6.9,6.9,36,0.00,CLR,,0.00,WeatherDisplay:10.37,2013-03-21 21:16:00,
2013-03-21 15:21:00,38.7,13.3,29.31,SW,225,4.6,4.7,35,0.00,CLR,,0.00,WeatherDisplay:10.37,2013-03-21 21:21:00,
2013-03-21 15:26:00,39.0,13.6,29.31,SSW,202,8.1,8.1,35,0.00,CLR,,0.00,WeatherDisplay:10.37,2013-03-21 21:26:00,
2013-03-21 15:31:00,39.2,13.8,29.32,NNW,338,5.8,5.8,35,0.00,CLR,,0.00,WeatherDisplay:10.37,2013-03-21 21:31:00,
2013-03-21 15:36:00,39.9,15.1,29.32,ENE,68,5.8,5.8,36,0.00,CLR,,0.00,WeatherDisplay:10.37,2013-03-21 21:36:00,
2013-03-21 15:41:00,40.1,14.6,29.32,ENE,68,5.1,5.1,35,0.00,CLR,,0.00,WeatherDisplay:10.37,2013-03-21 21:41:00,
2013-03-21 15:46:00,39.7,14.3,29.32,South,180,4.6,4.6,35,0.00,CLR,,0.00,WeatherDisplay:10.37,2013-03-21 21:46:00,
2013-03-21 15:51:00,39.7,14.3,29.29,SW,225,2.3,2.3,35,0.00,CLR,,0.00,WeatherDisplay:10.37,2013-03-21 21:51:00,
2013-03-21 15:56:00,39.4,14.6,29.29,South,180,6.9,6.9,36,0.00,CLR,,0.00,WeatherDisplay:10.37,2013-03-21 21:56:00,
2013-03-21 16:01:00,39.2,14.4,29.29,SW,225,7.5,7.5,36,0.00,CLR,,0.00,WeatherDisplay:10.37,2013-03-21 22:01:00,
2013-03-21 16:06:00,38.5,14.4,29.29,East,90,9.2,9.2,37,0.00,CLR,,0.00,WeatherDisplay:10.37,2013-03-21 22:06:00,
2013-03-21 16:11:00,38.3,14.9,29.29,East,90,10.4,10.4,38,0.00,CLR,,0.00,WeatherDisplay:10.37,2013-03-21 22:11:00,
2013-03-21 16:16:00,37.9,14.6,29.29,SSW,202,8.1,8.1,38,0.00,CLR,,0.00,WeatherDisplay:10.37,2013-03-21 22:16:00,
2013-03-21 16:21:00,37.9,15.7,29.29,SW,225,5.9,5.9,40,0.00,CLR,,0.00,WeatherDisplay:10.37,2013-03-21 22:21:00,
2013-03-21 16:26:00,37.4,15.8,29.29,ENE,68,4.6,4.6,41,0.00,CLR,,0.00,WeatherDisplay:10.37,2013-03-21 22:26:00,
2013-03-21 16:31:00,37.2,15.1,29.33,SW,225,4.8,4.8,40,0.00,CLR,,0.00,WeatherDisplay:10.37,2013-03-21 22:31:00,
2013-03-21 16:36:00,36.9,14.2,29.33,ENE,68,3.5,3.5,39,0.00,CLR,,0.00,WeatherDisplay:10.37,2013-03-21 22:36:00,
2013-03-21 16:41:00,36.9,14.2,29.33,SSW,202,2.8,2.8,39,0.00,CLR,,0.00,WeatherDisplay:10.37,2013-03-21 22:41:00,
2013-03-21 16:46:00,36.3,13.7,29.33,ESE,112,5.8,5.8,39,0.00,CLR,,0.00,WeatherDisplay:10.37,2013-03-21 22:46:00,
2013-03-21 16:51:00,36.3,13.7,29.31,East,90,5.2,5.2,39,0.00,CLR,,0.00,WeatherDisplay:10.37,2013-03-21 22:51:00,
2013-03-21 16:56:00,35.8,13.8,29.31,NE,45,5.8,5.8,40,0.00,CLR,,0.00,WeatherDisplay:10.37,2013-03-21 22:56:00,
2013-03-21 17:01:00,35.6,14.2,29.31,East,90,8.4,8.4,41,0.00,CLR,,0.00,WeatherDisplay:10.37,2013-03-21 23:01:00,
2013-03-21 17:06:00,35.6,14.2,29.31,ENE,68,8.5,8.5,41,0.00,CLR,,0.00,WeatherDisplay:10.37,2013-03-21 23:06:00,
2013-03-21 17:11:00,35.6,14.2,29.29,SSE,158,6.9,6.9,41,0.00,CLR,,0.00,WeatherDisplay:10.37,2013-03-21 23:11:00,
2013-03-21 17:16:00,35.6,14.2,29.29,ENE,68,10.4,10.4,41,0.00,CLR,,0.00,WeatherDisplay:10.37,2013-03-21 23:16:00,
2013-03-21 17:21:00,35.2,13.3,29.29,East,90,8.1,8.1,40,0.00,CLR,,0.00,WeatherDisplay:10.37,2013-03-21 23:21:00,
2013-03-21 17:26:00,35.2,13.3,29.29,SSE,158,5.1,5.1,40,0.00,CLR,,0.00,WeatherDisplay:10.37,2013-03-21 23:26:00,
2013-03-21 17:31:00,35.1,13.1,29.28,ENE,68,1.3,2.8,40,0.00,CLR,,0.00,WeatherDisplay:10.37,2013-03-21 23:31:00,
2013-03-21 17:36:00,35.4,13.5,29.28,NE,45,4.6,4.6,40,0.00,CLR,,0.00,WeatherDisplay:10.37,2013-03-21 23:36:00,
2013-03-21 17:41:00,35.4,13.5,29.28,SSW,202,3.5,3.5,40,0.00,CLR,,0.00,WeatherDisplay:10.37,2013-03-21 23:41:00,
2013-03-21 17:46:00,35.4,12.9,29.28,SE,135,3.5,3.5,39,0.00,CLR,,0.00,WeatherDisplay:10.37,2013-03-21 23:46:00,
2013-03-21 17:51:00,35.2,12.7,29.29,SE,135,3.9,3.9,39,0.00,CLR,,0.00,WeatherDisplay:10.37,2013-03-21 23:51:00,
2013-03-21 17:56:00,35.4,13.5,29.29,East,90,2.3,2.4,40,0.00,CLR,,0.00,WeatherDisplay:10.37,2013-03-21 23:56:00,
2013-03-21 18:01:00,35.4,13.5,29.29,South,180,1.1,1.4,40,0.00,CLR,,0.00,WeatherDisplay:10.37,2013-03-22 00:01:00,
2013-03-21 18:07:00,35.4,13.5,29.29,NW,315,2.8,2.8,40,0.00,CLR,,0.00,WeatherDisplay:10.37,2013-03-22 00:07:00,
2013-03-21 18:12:00,35.6,14.2,29.30,NNW,338,0.0,1.0,41,0.00,CLR,,0.00,WeatherDisplay:10.37,2013-03-22 00:12:00,
2013-03-21 18:17:00,35.8,14.3,29.30,ESE,112,1.5,1.5,41,0.00,CLR,,0.00,WeatherDisplay:10.37,2013-03-22 00:17:00,
2013-03-21 18:22:00,35.8,14.3,29.30,NW,315,1.1,1.1,41,0.00,CLR,,0.00,WeatherDisplay:10.37,2013-03-22 00:22:00,
2013-03-21 18:27:00,35.6,14.2,29.30,WSW,248,0.0,0.3,41,0.00,CLR,,0.00,WeatherDisplay:10.37,2013-03-22 00:27:00,
2013-03-21 18:32:00,35.2,14.4,29.30,North,0,0.0,0.6,42,0.00,CLR,,0.00,WeatherDisplay:10.37,2013-03-22 00:32:00,
2013-03-21 18:37:00,35.4,14.6,29.30,WNW,292,0.0,0.8,42,0.00,CLR,,0.00,WeatherDisplay:10.37,2013-03-22 00:37:00,
2013-03-21 18:42:00,35.2,14.4,29.30,NE,45,0.0,0.6,42,0.00,CLR,,0.00,WeatherDisplay:10.37,2013-03-22 00:42:00,
2013-03-21 18:47:00,35.1,14.8,29.30,NW,315,0.0,0.3,43,0.00,CLR,,0.00,WeatherDisplay:10.37,2013-03-22 00:47:00,
2013-03-21 18:52:00,34.9,14.6,29.29,North,0,0.0,0.2,43,0.00,CLR,,0.00,WeatherDisplay:10.37,2013-03-22 00:52:00,
2013-03-21 18:57:00,34.9,14.6,29.29,NNW,338,0.0,0.0,43,0.00,CLR,,0.00,WeatherDisplay:10.37,2013-03-22 00:57:00,
2013-03-21 19:02:00,34.7,15.0,29.29,NW,315,0.0,0.0,44,0.00,CLR,,0.00,WeatherDisplay:10.37,2013-03-22 01:02:00,
2013-03-21 19:07:00,34.5,14.8,29.29,North,0,0.0,0.0,44,0.00,CLR,,0.00,WeatherDisplay:10.37,2013-03-22 01:07:00,
2013-03-21 19:12:00,34.3,14.7,29.29,North,0,0.0,0.0,44,0.00,CLR,,0.00,WeatherDisplay:10.37,2013-03-22 01:12:00,
2013-03-21 19:17:00,34.2,14.5,29.29,ENE,68,0.0,0.0,44,0.00,CLR,,0.00,WeatherDisplay:10.37,2013-03-22 01:17:00,
2013-03-21 19:22:00,34.2,14.5,29.29,WSW,248,0.0,0.0,44,0.00,CLR,,0.00,WeatherDisplay:10.37,2013-03-22 01:22:00,
2013-03-21 19:27:00,34.2,14.5,29.29,NNE,22,0.0,0.0,44,0.00,CLR,,0.00,WeatherDisplay:10.37,2013-03-22 01:27:00,
2013-03-21 19:32:00,33.8,14.2,29.29,SSW,202,2.3,2.3,44,0.00,CLR,,0.00,WeatherDisplay:10.37,2013-03-22 01:32:00,
2013-03-21 19:49:00,33.3,13.7,29.29,NNE,22,0.0,0.0,44,0.00,CLR,,0.00,WeatherDisplay:10.37,2013-03-22 01:49:00,
2013-03-21 19:55:00,32.0,12.0,29.28,SSE,158,0.0,0.0,43,0.00,CLR,,0.00,WeatherDisplay:10.37,2013-03-22 01:55:00,
2013-03-21 20:00:00,31.3,11.9,29.28,South,180,0.0,0.0,44,0.00,CLR,,0.00,WeatherDisplay:10.37,2013-03-22 02:00:00,
2013-03-21 20:05:00,31.1,11.7,29.28,SSW,202,0.0,0.0,44,0.00,CLR,,0.00,WeatherDisplay:10.37,2013-03-22 02:05:00,
2013-03-21 20:10:00,30.6,11.2,29.28,SSW,202,0.0,0.1,44,0.00,CLR,,0.00,WeatherDisplay:10.37,2013-03-22 02:10:00,
2013-03-21 20:15:00,30.4,11.5,29.28,ESE,112,5.8,5.8,45,0.00,CLR,,0.00,WeatherDisplay:10.37,2013-03-22 02:15:00,
2013-03-21 20:20:00,30.4,11.5,29.28,SW,225,2.3,2.3,45,0.00,CLR,,0.00,WeatherDisplay:10.37,2013-03-22 02:20:00,
2013-03-21 20:25:00,30.0,11.2,29.28,SSW,202,0.0,1.0,45,0.00,CLR,,0.00,WeatherDisplay:10.37,2013-03-22 02:25:00,
2013-03-21 20:30:00,29.8,11.1,29.29,WSW,248,0.0,0.3,45,0.00,CLR,,0.00,WeatherDisplay:10.37,2013-03-22 02:30:00,
2013-03-21 20:35:00,29.7,10.9,29.29,WSW,248,0.0,0.0,45,0.00,CLR,,0.00,WeatherDisplay:10.37,2013-03-22 02:35:00,
2013-03-21 20:40:00,29.7,10.9,29.29,North,0,0.0,0.0,45,0.00,CLR,,0.00,WeatherDisplay:10.37,2013-03-22 02:40:00,
2013-03-21 20:45:00,29.3,11.1,29.29,ENE,68,0.0,0.0,46,0.00,CLR,,0.00,WeatherDisplay:10.37,2013-03-22 02:45:00,
2013-03-21 20:50:00,29.1,10.9,29.29,NE,45,0.0,0.0,46,0.00,CLR,,0.00,WeatherDisplay:10.37,2013-03-22 02:50:00,
2013-03-21 20:55:00,28.9,10.7,29.29,East,90,0.0,0.0,46,0.00,CLR,,0.00,WeatherDisplay:10.37,2013-03-22 02:55:00,
2013-03-21 21:00:00,28.6,10.4,29.29,North,0,0.0,0.0,46,0.00,CLR,,0.00,WeatherDisplay:10.37,2013-03-22 03:00:00,
2013-03-21 21:05:00,28.4,10.7,29.29,NNE,22,0.0,0.0,47,0.00,CLR,,0.00,WeatherDisplay:10.37,2013-03-22 03:05:00,
2013-03-21 21:10:00,28.2,10.5,29.29,East,90,0.0,0.0,47,0.00,CLR,,0.00,WeatherDisplay:10.37,2013-03-22 03:10:00,
2013-03-21 21:15:00,28.2,10.5,29.29,North,0,0.0,0.0,47,0.00,CLR,,0.00,WeatherDisplay:10.37,2013-03-22 03:15:00,
2013-03-21 21:20:00,28.2,10.5,29.29,ENE,68,0.0,0.0,47,0.00,CLR,,0.00,WeatherDisplay:10.37,2013-03-22 03:20:00,
2013-03-21 21:25:00,27.9,10.7,29.29,NE,45,0.0,0.0,48,0.00,CLR,,0.00,WeatherDisplay:10.37,2013-03-22 03:25:00,
2013-03-21 21:30:00,27.5,9.9,29.29,East,90,0.0,0.0,47,0.00,CLR,,0.00,WeatherDisplay:10.37,2013-03-22 03:30:00,
2013-03-21 21:35:00,27.5,10.4,29.29,NE,45,0.0,0.0,48,0.00,CLR,,0.00,WeatherDisplay:10.37,2013-03-22 03:35:00,
2013-03-21 21:40:00,27.1,10.0,29.29,NW,315,0.0,0.0,48,0.00,CLR,,0.00,WeatherDisplay:10.37,2013-03-22 03:40:00,
2013-03-21 21:45:00,26.8,9.7,29.29,ENE,68,0.0,0.0,48,0.00,CLR,,0.00,WeatherDisplay:10.37,2013-03-22 03:45:00,
2013-03-21 21:50:00,26.6,9.5,29.30,NW,315,0.0,0.0,48,0.00,CLR,,0.00,WeatherDisplay:10.37,2013-03-22 03:50:00,
2013-03-21 21:55:00,26.4,9.8,29.30,North,0,0.0,0.0,49,0.00,CLR,,0.00,WeatherDisplay:10.37,2013-03-22 03:55:00,
2013-03-21 22:00:00,26.4,9.8,29.30,ENE,68,0.0,0.0,49,0.00,CLR,,0.00,WeatherDisplay:10.37,2013-03-22 04:00:00,
2013-03-21 23:55:00,22.8,7.8,29.32,North,0,0.0,0.0,52,0.00,CLR,,0.00,WeatherDisplay:10.37,2013-03-22 05:55:00,
2013-03-21 23:56:00,22.8,7.8,29.32,North,0,0.0,0.0,52,0.00,CLR,,0.00,WeatherDisplay:10.37,2013-03-22 05:56:00,